createdAt,value
2023-08-31T00:00:56.801Z,16.30
2023-08-31T00:03:23.439Z,16.30
2023-08-31T00:05:52.521Z,16.30
2023-08-31T00:08:19.216Z,16.20
2023-08-31T00:10:46.306Z,16.20
2023-08-31T00:13:13.416Z,16.20
2023-08-31T00:15:42.153Z,16.20
2023-08-31T00:18:09.032Z,16.30
2023-08-31T00:20:36.073Z,16.30
2023-08-31T00:23:02.768Z,16.30
2023-08-31T00:25:29.819Z,16.30
2023-08-31T00:27:58.406Z,16.30
2023-08-31T00:30:30.964Z,16.30
2023-08-31T00:35:27.228Z,16.30
2023-08-31T00:37:59.343Z,16.34
2023-08-31T00:40:26.896Z,16.30
2023-08-31T00:42:53.474Z,16.30
2023-08-31T00:45:20.414Z,16.30
2023-08-31T00:47:48.744Z,16.30
2023-08-31T00:50:15.278Z,16.30
2023-08-31T00:52:45.272Z,16.30
2023-08-31T00:55:12.088Z,16.22
2023-08-31T00:57:38.503Z,16.20
2023-08-31T01:00:09.195Z,16.20
2023-08-31T01:02:56.223Z,16.20
2023-08-31T01:05:48.413Z,16.20
2023-08-31T01:08:40.465Z,16.20
2023-08-31T01:11:35.543Z,16.20
2023-08-31T01:14:20.693Z,16.20
2023-08-31T01:16:51.155Z,16.20
2023-08-31T01:19:49.693Z,16.12
2023-08-31T01:22:41.546Z,16.10
2023-08-31T01:25:10.336Z,16.10
2023-08-31T01:27:38.855Z,16.10
2023-08-31T01:30:06.924Z,16.10
2023-08-31T01:32:34.068Z,16.10
2023-08-31T01:35:02.469Z,16.10
2023-08-31T01:37:41.553Z,16.10
2023-08-31T01:40:15.868Z,16.10
2023-08-31T01:42:45.008Z,16.10
2023-08-31T01:45:22.013Z,16.10
2023-08-31T01:47:49.938Z,16.02
2023-08-31T01:50:16.410Z,16.00
2023-08-31T01:52:42.830Z,16.02
2023-08-31T01:55:10.027Z,16.02
2023-08-31T01:57:36.534Z,16.00
2023-08-31T02:00:05.319Z,16.00
2023-08-31T02:02:32.243Z,16.00
2023-08-31T02:05:01.738Z,16.00
2023-08-31T02:07:29.241Z,16.00
2023-08-31T02:09:55.753Z,15.94
2023-08-31T02:12:22.479Z,15.90
2023-08-31T02:14:49.203Z,15.90
2023-08-31T02:17:15.590Z,15.90
2023-08-31T02:19:42.076Z,15.90
2023-08-31T02:22:08.626Z,15.90
2023-08-31T02:24:35.070Z,15.90
2023-08-31T02:27:01.551Z,15.90
2023-08-31T02:29:28.044Z,15.90
2023-08-31T02:31:54.549Z,15.80
2023-08-31T02:34:21.226Z,15.80
2023-08-31T02:36:47.672Z,15.80
2023-08-31T02:39:14.408Z,15.80
2023-08-31T02:41:41.046Z,15.80
2023-08-31T02:44:07.571Z,15.80
2023-08-31T02:46:34.080Z,15.80
2023-08-31T02:51:26.693Z,15.80
2023-08-31T02:53:54.522Z,15.80
2023-08-31T02:56:20.982Z,15.80
2023-08-31T02:58:47.390Z,15.80
2023-08-31T03:01:15.615Z,15.80
2023-08-31T03:03:44.848Z,15.80
2023-08-31T03:06:11.264Z,15.80
2023-08-31T03:08:38.987Z,15.82
2023-08-31T03:11:06.913Z,15.90
2023-08-31T03:13:34.635Z,15.90
2023-08-31T03:16:02.006Z,15.90
2023-08-31T03:18:29.033Z,15.90
2023-08-31T03:20:56.428Z,15.90
2023-08-31T03:23:22.955Z,15.90
2023-08-31T03:25:49.505Z,15.90
2023-08-31T03:28:15.971Z,15.86
2023-08-31T03:30:42.527Z,15.80
2023-08-31T03:33:09.796Z,15.80
2023-08-31T03:35:36.451Z,15.80
2023-08-31T03:38:03.018Z,15.80
2023-08-31T03:40:29.521Z,15.80
2023-08-31T03:42:56.065Z,15.80
2023-08-31T03:45:24.887Z,15.80
2023-08-31T03:47:51.272Z,15.80
2023-08-31T03:50:17.762Z,15.80
2023-08-31T03:52:44.213Z,15.70
2023-08-31T03:55:11.208Z,15.70
2023-08-31T03:57:37.629Z,15.70
2023-08-31T04:00:09.766Z,15.70
2023-08-31T04:02:36.904Z,15.60
2023-08-31T04:05:06.331Z,15.60
2023-08-31T04:07:36.367Z,15.60
2023-08-31T04:10:04.947Z,15.60
2023-08-31T04:12:31.705Z,15.62
2023-08-31T04:14:58.134Z,15.70
2023-08-31T04:17:24.572Z,15.70
2023-08-31T04:19:51.671Z,15.74
2023-08-31T04:22:18.184Z,15.80
2023-08-31T04:24:44.700Z,15.80
2023-08-31T04:27:11.222Z,15.80
2023-08-31T04:29:38.397Z,15.90
2023-08-31T04:32:05.385Z,15.90
2023-08-31T04:34:31.900Z,16.00
2023-08-31T04:36:58.457Z,16.00
2023-08-31T04:39:24.875Z,16.10
2023-08-31T04:41:51.311Z,16.10
2023-08-31T04:44:18.256Z,16.10
2023-08-31T04:46:44.662Z,16.20
2023-08-31T04:49:11.176Z,16.20
2023-08-31T04:51:42.777Z,16.22
2023-08-31T04:54:09.262Z,16.30
2023-08-31T04:56:36.444Z,16.34
2023-08-31T04:59:04.085Z,16.40
2023-08-31T05:01:31.119Z,16.40
2023-08-31T05:03:57.678Z,16.46
2023-08-31T05:06:24.159Z,16.50
2023-08-31T05:08:50.973Z,16.50
2023-08-31T05:11:17.484Z,16.60
2023-08-31T05:13:44.019Z,16.60
2023-08-31T05:16:10.821Z,16.60
2023-08-31T05:18:39.178Z,16.60
2023-08-31T05:21:05.636Z,16.62
2023-08-31T05:23:32.194Z,16.70
2023-08-31T05:25:59.731Z,16.70
2023-08-31T05:28:26.156Z,16.70
2023-08-31T05:30:56.297Z,16.80
2023-08-31T05:33:28.473Z,16.80
2023-08-31T05:35:55.670Z,16.86
2023-08-31T05:38:22.603Z,16.90
2023-08-31T05:40:49.040Z,16.96
2023-08-31T05:43:16.737Z,17.00
2023-08-31T05:45:43.578Z,17.10
2023-08-31T05:48:10.172Z,17.10
2023-08-31T05:50:39.940Z,17.10
2023-08-31T05:53:06.673Z,17.20
2023-08-31T05:55:33.907Z,17.20
2023-08-31T06:00:26.743Z,17.30
2023-08-31T06:02:53.211Z,17.30
2023-08-31T06:05:20.344Z,17.40
2023-08-31T06:07:46.815Z,17.46
2023-08-31T06:10:14.726Z,17.50
2023-08-31T06:12:41.209Z,17.60
2023-08-31T06:15:08.209Z,17.60
2023-08-31T06:17:36.235Z,17.70
2023-08-31T06:20:03.174Z,17.70
2023-08-31T06:22:29.637Z,17.80
2023-08-31T06:24:56.239Z,17.90
2023-08-31T06:27:22.655Z,18.00
2023-08-31T06:29:49.168Z,18.02
2023-08-31T06:32:15.751Z,18.10
2023-08-31T06:34:42.312Z,18.10
2023-08-31T06:37:08.755Z,18.10
2023-08-31T06:39:35.424Z,18.10
2023-08-31T06:42:01.938Z,18.10
2023-08-31T06:44:30.463Z,18.00
2023-08-31T06:46:57.046Z,18.00
2023-08-31T06:49:24.660Z,17.98
2023-08-31T06:51:51.469Z,17.90
2023-08-31T06:54:17.885Z,18.00
2023-08-31T06:56:44.349Z,18.00
2023-08-31T06:59:10.856Z,18.02
2023-08-31T07:01:37.837Z,18.08
2023-08-31T07:04:05.597Z,18.10
2023-08-31T07:06:36.091Z,18.20
2023-08-31T07:09:02.657Z,18.30
2023-08-31T07:11:29.075Z,18.32
2023-08-31T07:13:56.010Z,18.40
2023-08-31T07:16:22.719Z,18.46
2023-08-31T07:18:49.178Z,18.40
2023-08-31T07:21:15.640Z,18.40
2023-08-31T07:23:42.266Z,18.40
2023-08-31T07:26:08.763Z,18.44
2023-08-31T07:28:36.030Z,18.50
2023-08-31T07:31:07.497Z,18.54
2023-08-31T07:33:38.611Z,18.60
2023-08-31T07:36:07.258Z,18.60
2023-08-31T07:38:34.608Z,18.60
2023-08-31T07:43:27.804Z,18.60
2023-08-31T07:45:54.886Z,18.60
2023-08-31T07:48:21.506Z,18.60
2023-08-31T07:50:47.929Z,18.60
2023-08-31T07:53:14.723Z,18.64
2023-08-31T07:55:41.948Z,18.70
2023-08-31T07:58:08.478Z,18.72
2023-08-31T08:00:35.040Z,18.80
2023-08-31T08:05:28.539Z,18.90
2023-08-31T08:07:54.992Z,19.04
2023-08-31T08:10:21.614Z,19.22
2023-08-31T08:12:48.075Z,19.50
2023-08-31T08:15:15.271Z,19.68
2023-08-31T08:17:41.733Z,19.80
2023-08-31T08:20:09.049Z,19.90
2023-08-31T08:22:37.117Z,20.00
2023-08-31T08:25:04.356Z,20.10
2023-08-31T08:27:31.178Z,20.20
2023-08-31T08:29:57.614Z,20.20
2023-08-31T08:32:24.163Z,20.38
2023-08-31T08:34:52.134Z,20.48
2023-08-31T08:37:18.891Z,20.60
2023-08-31T08:39:50.923Z,20.70
2023-08-31T08:42:20.142Z,20.80
2023-08-31T08:44:47.903Z,20.84
2023-08-31T08:47:15.037Z,20.90
2023-08-31T08:49:41.668Z,20.90
2023-08-31T08:52:08.721Z,20.90
2023-08-31T08:54:39.422Z,20.90
2023-08-31T08:57:06.842Z,21.00
2023-08-31T08:59:33.720Z,21.00
2023-08-31T09:02:00.311Z,21.00
2023-08-31T09:04:26.803Z,21.00
2023-08-31T09:06:53.402Z,21.10
2023-08-31T09:09:20.348Z,21.20
2023-08-31T09:11:47.041Z,21.40
2023-08-31T09:14:18.174Z,21.58
2023-08-31T09:16:50.817Z,21.68
2023-08-31T09:19:25.376Z,21.70
2023-08-31T09:21:53.508Z,21.80
2023-08-31T09:24:20.006Z,21.90
2023-08-31T09:26:49.730Z,22.00
2023-08-31T09:29:16.826Z,22.00
2023-08-31T09:31:45.584Z,22.00
2023-08-31T09:34:12.573Z,22.10
2023-08-31T09:36:39.957Z,22.10
2023-08-31T09:39:07.463Z,22.24
2023-08-31T09:41:36.825Z,22.30
2023-08-31T09:44:22.074Z,22.30
2023-08-31T09:46:48.728Z,22.40
2023-08-31T09:49:17.844Z,22.50
2023-08-31T09:51:50.494Z,22.60
2023-08-31T09:54:20.325Z,22.60
2023-08-31T09:56:48.910Z,22.56
2023-08-31T09:59:17.879Z,22.50
2023-08-31T10:01:47.773Z,22.40
2023-08-31T10:04:14.998Z,22.40
2023-08-31T10:06:43.143Z,22.40
2023-08-31T10:09:10.819Z,22.40
2023-08-31T10:11:39.282Z,22.60
2023-08-31T10:14:06.448Z,22.60
2023-08-31T10:16:33.301Z,22.60
2023-08-31T10:19:00.153Z,22.60
2023-08-31T10:21:27.083Z,22.60
2023-08-31T10:23:53.711Z,22.40
2023-08-31T10:26:31.979Z,22.30
2023-08-31T10:29:00.634Z,22.40
2023-08-31T10:31:32.533Z,22.50
2023-08-31T10:34:03.234Z,22.40
2023-08-31T10:36:49.634Z,22.50
2023-08-31T10:39:22.845Z,22.60
2023-08-31T10:41:57.936Z,22.70
2023-08-31T10:44:31.821Z,22.80
2023-08-31T10:47:04.038Z,22.90
2023-08-31T10:49:30.498Z,22.90
2023-08-31T10:52:03.384Z,23.10
2023-08-31T10:54:38.569Z,23.20
2023-08-31T10:57:10.296Z,23.30
2023-08-31T10:59:55.989Z,23.40
2023-08-31T11:02:43.826Z,23.54
2023-08-31T11:05:23.266Z,23.80
2023-08-31T11:07:54.220Z,23.96
2023-08-31T11:10:28.631Z,24.10
2023-08-31T11:12:58.386Z,24.20
2023-08-31T11:15:30.896Z,24.20
2023-08-31T11:17:57.563Z,24.30
2023-08-31T11:20:29.375Z,24.30
2023-08-31T11:22:56.727Z,24.20
2023-08-31T11:25:26.853Z,24.10
2023-08-31T11:30:32.548Z,24.10
2023-08-31T11:33:03.844Z,24.10
2023-08-31T11:35:38.522Z,24.10
2023-08-31T11:38:05.683Z,24.20
2023-08-31T11:40:32.635Z,24.10
2023-08-31T11:45:29.778Z,23.90
2023-08-31T11:47:57.719Z,23.58
2023-08-31T11:50:25.535Z,23.20
2023-08-31T11:52:54.359Z,22.74
2023-08-31T11:55:21.956Z,22.30
2023-08-31T11:57:51.912Z,22.00
2023-08-31T12:00:21.271Z,21.86
2023-08-31T12:03:00.692Z,21.90
2023-08-31T12:05:28.557Z,22.06
2023-08-31T12:07:56.866Z,22.10
2023-08-31T12:10:26.067Z,22.22
2023-08-31T12:12:54.237Z,22.20
2023-08-31T12:15:22.546Z,22.00
2023-08-31T12:17:55.088Z,21.80
2023-08-31T12:20:29.911Z,21.60
2023-08-31T12:22:56.352Z,21.50
2023-08-31T12:25:23.969Z,21.50
2023-08-31T12:27:51.163Z,21.40
2023-08-31T12:30:17.882Z,21.30
2023-08-31T12:32:44.504Z,21.20
2023-08-31T12:35:12.650Z,21.14
2023-08-31T12:37:39.653Z,21.00
2023-08-31T12:40:08.266Z,20.80
2023-08-31T12:42:34.926Z,20.54
2023-08-31T12:45:01.422Z,20.20
2023-08-31T12:47:28.044Z,19.66
2023-08-31T12:49:54.638Z,19.16
2023-08-31T12:52:21.394Z,18.76
2023-08-31T12:54:48.366Z,18.30
2023-08-31T12:57:15.486Z,17.88
2023-08-31T12:59:43.187Z,17.54
2023-08-31T13:02:11.908Z,17.24
2023-08-31T13:04:40.708Z,17.12
2023-08-31T13:07:07.623Z,17.10
2023-08-31T13:09:34.057Z,17.00
2023-08-31T13:12:00.460Z,17.10
2023-08-31T13:14:26.992Z,17.10
2023-08-31T13:16:53.475Z,17.18
2023-08-31T13:19:20.542Z,17.10
2023-08-31T13:21:46.986Z,17.00
2023-08-31T13:24:13.422Z,17.00
2023-08-31T13:26:39.820Z,17.00
2023-08-31T13:29:06.212Z,17.30
2023-08-31T13:31:32.952Z,17.50
2023-08-31T13:33:59.329Z,17.60
2023-08-31T13:36:25.860Z,17.70
2023-08-31T13:38:52.419Z,17.80
2023-08-31T13:41:18.831Z,17.90
2023-08-31T13:43:45.342Z,18.04
2023-08-31T13:46:13.245Z,18.12
2023-08-31T13:48:39.687Z,18.20
2023-08-31T13:51:06.114Z,18.28
2023-08-31T13:53:32.727Z,18.40
2023-08-31T13:55:59.138Z,18.60
2023-08-31T13:58:25.603Z,18.80
2023-08-31T14:00:52.030Z,19.00
2023-08-31T14:03:18.631Z,19.30
2023-08-31T14:05:49.994Z,19.60
2023-08-31T14:08:17.159Z,19.90
2023-08-31T14:10:43.665Z,20.00
2023-08-31T14:13:10.207Z,20.10
2023-08-31T14:15:37.609Z,20.10
2023-08-31T14:18:05.055Z,20.30
2023-08-31T14:20:31.561Z,20.50
2023-08-31T14:22:58.817Z,20.60
2023-08-31T14:25:26.700Z,20.70
2023-08-31T14:27:53.208Z,20.80
2023-08-31T14:30:19.880Z,20.90
2023-08-31T14:32:46.331Z,20.90
2023-08-31T14:35:12.807Z,20.70
2023-08-31T14:37:39.301Z,20.60
2023-08-31T14:40:08.365Z,20.70
2023-08-31T14:42:35.178Z,20.80
2023-08-31T14:47:28.644Z,20.70
2023-08-31T14:49:56.627Z,20.94
2023-08-31T14:52:23.512Z,21.20
2023-08-31T14:54:50.253Z,21.30
2023-08-31T14:57:16.817Z,21.40
2023-08-31T14:59:43.325Z,21.50
2023-08-31T15:02:09.793Z,21.42
2023-08-31T15:04:36.310Z,21.40
2023-08-31T15:09:28.370Z,21.40
2023-08-31T15:11:54.894Z,21.40
2023-08-31T15:14:21.384Z,21.50
2023-08-31T15:16:47.818Z,21.50
2023-08-31T15:19:14.317Z,21.60
2023-08-31T15:21:40.872Z,21.70
2023-08-31T15:24:07.768Z,21.70
2023-08-31T15:26:34.520Z,21.60
2023-08-31T15:29:00.964Z,21.60
2023-08-31T15:31:27.844Z,21.60
2023-08-31T15:33:54.473Z,21.40
2023-08-31T15:36:20.935Z,21.36
2023-08-31T15:38:47.355Z,21.30
2023-08-31T15:41:16.080Z,21.14
2023-08-31T15:43:43.633Z,21.00
2023-08-31T15:46:10.818Z,21.00
2023-08-31T15:48:38.121Z,20.90
2023-08-31T15:51:05.082Z,20.64
2023-08-31T15:53:32.413Z,20.50
2023-08-31T15:55:59.031Z,20.30
2023-08-31T15:58:27.773Z,20.10
2023-08-31T16:01:02.042Z,19.90
2023-08-31T16:03:31.352Z,19.70
2023-08-31T16:06:01.403Z,19.60
2023-08-31T16:08:29.145Z,19.66
2023-08-31T16:10:56.145Z,19.60
2023-08-31T16:13:22.987Z,19.60
2023-08-31T16:15:51.068Z,19.70
2023-08-31T16:18:18.175Z,19.80
2023-08-31T16:20:45.202Z,19.90
2023-08-31T16:23:12.250Z,20.10
2023-08-31T16:25:38.774Z,20.32
2023-08-31T16:28:05.633Z,20.50
2023-08-31T16:30:32.522Z,20.54
2023-08-31T16:32:59.227Z,20.60
2023-08-31T16:35:25.708Z,20.60
2023-08-31T16:37:52.128Z,20.60
2023-08-31T16:40:18.705Z,20.60
2023-08-31T16:42:45.157Z,20.60
2023-08-31T16:45:12.054Z,20.52
2023-08-31T16:47:38.923Z,20.50
2023-08-31T16:50:06.117Z,20.36
2023-08-31T16:52:33.521Z,20.30
2023-08-31T16:55:00.674Z,20.18
2023-08-31T16:57:27.343Z,20.10
2023-08-31T16:59:54.184Z,20.00
2023-08-31T17:02:20.722Z,19.90
2023-08-31T17:04:47.916Z,19.80
2023-08-31T17:07:14.439Z,19.60
2023-08-31T17:09:40.958Z,19.40
2023-08-31T17:12:08.087Z,19.20
2023-08-31T17:14:34.470Z,18.94
2023-08-31T17:19:29.246Z,18.48
2023-08-31T17:21:55.780Z,18.22
2023-08-31T17:24:22.266Z,18.02
2023-08-31T17:26:48.868Z,17.82
2023-08-31T17:29:15.380Z,17.70
2023-08-31T17:31:43.282Z,17.50
2023-08-31T17:34:13.133Z,17.30
2023-08-31T17:36:39.811Z,17.20
2023-08-31T17:39:06.309Z,17.10
2023-08-31T17:41:32.803Z,17.00
2023-08-31T17:43:59.204Z,16.90
2023-08-31T17:46:25.864Z,16.80
2023-08-31T17:48:52.549Z,16.70
2023-08-31T17:51:19.115Z,16.60
2023-08-31T17:53:46.170Z,16.50
2023-08-31T17:56:12.616Z,16.40
2023-08-31T17:58:39.134Z,16.30
2023-08-31T18:01:06.135Z,16.12
2023-08-31T18:03:33.116Z,16.00
2023-08-31T18:05:59.838Z,15.90
2023-08-31T18:08:28.088Z,15.80
2023-08-31T18:10:55.616Z,15.72
2023-08-31T18:13:22.256Z,15.64
2023-08-31T18:15:52.886Z,15.60
2023-08-31T18:18:20.561Z,15.50
2023-08-31T18:20:47.455Z,15.40
2023-08-31T18:23:15.720Z,15.30
2023-08-31T18:25:48.343Z,15.20
2023-08-31T18:28:15.050Z,15.10
2023-08-31T18:30:42.173Z,15.10
2023-08-31T18:33:08.753Z,15.00
2023-08-31T18:35:35.235Z,14.90
2023-08-31T18:38:01.698Z,14.80
2023-08-31T18:40:28.064Z,14.80
2023-08-31T18:42:54.549Z,14.70
2023-08-31T18:45:21.019Z,14.70
2023-08-31T18:47:47.569Z,14.60
2023-08-31T18:50:21.283Z,14.60
2023-08-31T18:52:49.788Z,14.50
2023-08-31T18:55:16.953Z,14.50
2023-08-31T18:57:47.002Z,14.50
2023-08-31T19:00:15.276Z,14.40
2023-08-31T19:02:44.059Z,14.40
2023-08-31T19:05:12.101Z,14.30
2023-08-31T19:07:39.149Z,14.30
2023-08-31T19:10:09.026Z,14.24
2023-08-31T19:12:36.813Z,14.20
2023-08-31T19:15:04.785Z,14.20
2023-08-31T19:17:31.323Z,14.10
2023-08-31T19:19:57.818Z,14.10
2023-08-31T19:22:24.602Z,14.10
2023-08-31T19:24:52.558Z,14.00
2023-08-31T19:27:19.943Z,14.00
2023-08-31T19:29:46.568Z,14.00
2023-08-31T19:32:13.808Z,13.90
2023-08-31T19:34:40.453Z,13.90
2023-08-31T19:37:06.871Z,13.80
2023-08-31T19:39:33.338Z,13.80
2023-08-31T19:42:00.316Z,13.76
2023-08-31T19:44:26.938Z,13.70
2023-08-31T19:46:56.124Z,13.70
2023-08-31T19:49:25.613Z,13.70
2023-08-31T19:51:52.276Z,13.68
2023-08-31T19:54:18.805Z,13.60
2023-08-31T19:56:45.322Z,13.70
2023-08-31T19:59:11.982Z,13.70
2023-08-31T20:01:40.493Z,13.80
2023-08-31T20:04:07.133Z,13.80
2023-08-31T20:06:33.778Z,13.90
2023-08-31T20:09:00.559Z,13.98
2023-08-31T20:11:27.032Z,14.00
2023-08-31T20:13:57.036Z,14.10
2023-08-31T20:16:23.863Z,14.20
2023-08-31T20:18:50.585Z,14.20
2023-08-31T20:21:17.370Z,14.30
2023-08-31T20:23:44.115Z,14.30
2023-08-31T20:26:10.958Z,14.30
2023-08-31T20:28:37.468Z,14.30
2023-08-31T20:31:04.930Z,14.30
2023-08-31T20:33:31.533Z,14.30
2023-08-31T20:36:05.880Z,14.30
2023-08-31T20:38:32.428Z,14.30
2023-08-31T20:40:58.880Z,14.24
2023-08-31T20:43:25.280Z,14.22
2023-08-31T20:45:52.652Z,14.22
2023-08-31T20:48:19.374Z,14.20
2023-08-31T20:50:46.055Z,14.20
2023-08-31T20:53:12.408Z,14.20
2023-08-31T20:55:38.978Z,14.10
2023-08-31T20:58:05.534Z,14.10
2023-08-31T21:00:31.958Z,14.06
2023-08-31T21:02:58.468Z,14.00
2023-08-31T21:05:24.907Z,13.90
2023-08-31T21:07:51.418Z,13.90
2023-08-31T21:10:17.903Z,13.80
2023-08-31T21:12:44.323Z,13.70
2023-08-31T21:15:11.031Z,13.70
2023-08-31T21:17:38.765Z,13.60
2023-08-31T21:20:07.398Z,13.50
2023-08-31T21:22:33.912Z,13.40
2023-08-31T21:25:00.428Z,13.30
2023-08-31T21:27:26.958Z,13.28
2023-08-31T21:29:53.417Z,13.20
2023-08-31T21:32:19.847Z,13.10
2023-08-31T21:34:46.263Z,13.10
2023-08-31T21:37:12.719Z,13.00
2023-08-31T21:39:39.254Z,13.00
2023-08-31T21:42:05.762Z,12.92
2023-08-31T21:44:32.220Z,12.90
2023-08-31T21:46:58.651Z,12.80
2023-08-31T21:49:25.102Z,12.72
2023-08-31T21:51:51.516Z,12.70
2023-08-31T21:54:17.953Z,12.60
2023-08-31T21:56:44.376Z,12.60
2023-08-31T21:59:12.124Z,12.58
2023-08-31T22:01:39.556Z,12.50
2023-08-31T22:04:06.574Z,12.50
2023-08-31T22:06:33.061Z,12.50
2023-08-31T22:08:59.592Z,12.46
2023-08-31T22:11:26.046Z,12.40
2023-08-31T22:13:52.556Z,12.40
2023-08-31T22:16:29.308Z,12.30
2023-08-31T22:18:56.870Z,12.30
2023-08-31T22:21:23.338Z,12.22
2023-08-31T22:23:49.755Z,12.20
2023-08-31T22:26:16.245Z,12.20
2023-08-31T22:28:42.680Z,12.10
2023-08-31T22:31:09.122Z,12.10
2023-08-31T22:33:35.649Z,12.10
2023-08-31T22:36:05.415Z,12.10
2023-08-31T22:38:32.010Z,12.10
2023-08-31T22:40:58.464Z,12.08
2023-08-31T22:43:24.907Z,12.00
2023-08-31T22:45:58.816Z,12.00
2023-08-31T22:48:25.440Z,12.00
2023-08-31T22:53:29.718Z,11.90
2023-08-31T22:55:56.527Z,11.90
2023-08-31T22:58:22.938Z,11.90
2023-08-31T23:00:52.322Z,11.90
2023-08-31T23:03:20.901Z,11.84
2023-08-31T23:05:47.721Z,11.80
2023-08-31T23:08:15.037Z,11.80
2023-08-31T23:10:41.836Z,11.80
2023-08-31T23:13:08.251Z,11.70
2023-08-31T23:15:38.235Z,11.70
2023-08-31T23:18:05.439Z,11.70
2023-08-31T23:20:31.921Z,11.60
2023-08-31T23:22:58.396Z,11.60
2023-08-31T23:25:25.030Z,11.60
2023-08-31T23:27:51.543Z,11.60
2023-08-31T23:30:18.260Z,11.60
2023-08-31T23:32:44.842Z,11.52
2023-08-31T23:35:11.630Z,11.50
2023-08-31T23:37:38.118Z,11.50
2023-08-31T23:40:10.856Z,11.50
2023-08-31T23:42:37.479Z,11.44
2023-08-31T23:45:05.571Z,11.40
2023-08-31T23:47:32.032Z,11.50
2023-08-31T23:49:58.508Z,11.50
2023-08-31T23:52:25.544Z,11.52
2023-08-31T23:54:52.025Z,11.60
2023-08-31T23:57:18.421Z,11.60
2023-08-31T23:59:44.974Z,11.60
